Port Macquarie, Australia
Current Conditions -  °F | °C
As of 11:22 AM on Friday 28 Nov 2014 (Local Time) from YPMQ Reporting Station
Overcast Overcast  
Wind Chill: 66°   Ceiling: 4100
Heat Index: 66°   Visibility: 6mi
Dew Point: 64°   Wind: 6mph
Humidity: 94%   Direction: 250°WSW
Pressure: 30.18"   Gusts: NA
Location:  31.43°S, 152.91°E
Report Text: YPMQ 280022Z AUTO 25005KT 9999 // SCT026 BKN041 OVC047 19/18 Q1022
Loading
Personal Weather Stations






























Interactive Weather Map New forecast layout! Learn more

10-Day Weather Forecast

Advertisements
Track Severe Weather on mobile